createdAt,value
2018-09-15T00:00:25.720Z,93.50
2018-09-15T00:02:55.080Z,92.50
2018-09-15T00:05:24.455Z,92.10
2018-09-15T00:07:53.844Z,91.60
2018-09-15T00:10:23.196Z,91.40
2018-09-15T00:12:52.807Z,89.00
2018-09-15T00:15:22.232Z,87.40
2018-09-15T00:17:51.859Z,85.70
2018-09-15T00:20:21.350Z,85.20
2018-09-15T00:22:50.741Z,81.80
2018-09-15T00:25:20.136Z,81.40
2018-09-15T00:27:49.537Z,81.20
2018-09-15T00:30:18.908Z,81.10
2018-09-15T00:32:48.277Z,79.30
2018-09-15T00:35:17.665Z,78.90
2018-09-15T00:37:47.034Z,79.50
2018-09-15T00:40:16.423Z,79.30
2018-09-15T00:42:45.963Z,78.60
2018-09-15T00:45:15.406Z,77.90
2018-09-15T00:47:44.810Z,77.40
2018-09-15T00:50:14.256Z,78.60
2018-09-15T00:52:43.631Z,77.50
2018-09-15T00:55:13.019Z,77.00
2018-09-15T00:57:42.399Z,76.90
2018-09-15T01:00:11.920Z,76.80
2018-09-15T01:02:41.306Z,77.30
2018-09-15T01:05:10.680Z,77.70
2018-09-15T01:07:40.054Z,77.30
2018-09-15T01:10:09.566Z,77.50
2018-09-15T01:12:38.951Z,77.00
2018-09-15T01:15:08.567Z,77.00
2018-09-15T01:17:37.959Z,76.40
2018-09-15T01:20:07.413Z,76.00
2018-09-15T01:22:36.786Z,76.20
2018-09-15T01:25:06.274Z,76.30
2018-09-15T01:27:35.626Z,76.20
2018-09-15T01:30:05.135Z,76.20
2018-09-15T01:32:34.531Z,76.00
2018-09-15T01:35:03.892Z,76.20
2018-09-15T01:37:33.269Z,76.20
2018-09-15T01:40:02.690Z,76.40
2018-09-15T01:42:32.038Z,77.00
2018-09-15T01:45:01.363Z,77.00
2018-09-15T01:47:30.778Z,76.60
2018-09-15T01:50:00.112Z,76.60
2018-09-15T01:52:29.529Z,76.60
2018-09-15T01:54:58.986Z,76.60
2018-09-15T01:57:28.688Z,76.00
2018-09-15T01:59:58.056Z,76.10
2018-09-15T02:02:27.555Z,76.20
2018-09-15T02:04:56.911Z,76.30
2018-09-15T02:07:26.314Z,76.20
2018-09-15T02:09:55.762Z,76.10
2018-09-15T02:12:25.098Z,76.10
2018-09-15T02:14:54.442Z,75.90
2018-09-15T02:17:23.898Z,75.80
2018-09-15T02:19:53.216Z,75.70
2018-09-15T02:22:23.470Z,75.60
2018-09-15T02:24:52.893Z,75.70
2018-09-15T02:27:22.337Z,76.00
2018-09-15T02:29:52.381Z,77.30
2018-09-15T02:32:21.803Z,77.30
2018-09-15T02:34:51.590Z,76.90
2018-09-15T02:37:21.019Z,76.90
2018-09-15T02:39:50.475Z,76.30
2018-09-15T02:42:19.880Z,76.90
2018-09-15T02:44:49.491Z,77.40
2018-09-15T02:47:18.879Z,75.10
2018-09-15T02:49:48.197Z,75.40
2018-09-15T02:52:17.697Z,75.60
2018-09-15T02:54:47.103Z,76.10
2018-09-15T02:57:16.482Z,76.10
2018-09-15T02:59:45.821Z,76.20
2018-09-15T03:02:15.172Z,76.60
2018-09-15T03:04:44.569Z,77.20
2018-09-15T03:07:13.936Z,76.30
2018-09-15T03:09:43.319Z,82.80
2018-09-15T03:12:12.782Z,89.50
2018-09-15T03:14:42.174Z,89.20
2018-09-15T03:17:11.543Z,88.40
2018-09-15T03:19:41.092Z,89.10
2018-09-15T03:22:10.598Z,89.30
2018-09-15T03:24:40.532Z,89.10
2018-09-15T03:27:09.882Z,86.70
2018-09-15T03:29:39.359Z,85.20
2018-09-15T03:32:08.772Z,85.60
2018-09-15T03:34:38.118Z,85.60
2018-09-15T03:37:07.566Z,86.50
2018-09-15T03:39:36.983Z,87.10
2018-09-15T03:42:06.433Z,86.90
2018-09-15T03:44:35.785Z,86.30
2018-09-15T03:47:05.196Z,86.40
2018-09-15T03:49:34.556Z,86.20
2018-09-15T03:52:03.982Z,85.50
2018-09-15T03:54:33.352Z,85.40
2018-09-15T03:57:02.700Z,85.30
2018-09-15T03:59:32.084Z,85.30
2018-09-15T04:02:01.428Z,84.70
2018-09-15T04:04:30.823Z,84.60
2018-09-15T04:07:00.191Z,84.30
2018-09-15T04:09:29.579Z,84.30
2018-09-15T04:11:58.971Z,83.50
2018-09-15T04:14:28.370Z,83.70
2018-09-15T04:16:57.711Z,84.70
2018-09-15T04:19:27.067Z,84.50
2018-09-15T04:21:56.533Z,84.30
2018-09-15T04:24:25.930Z,84.70
2018-09-15T04:26:55.288Z,84.90
2018-09-15T04:29:24.688Z,84.60
2018-09-15T04:31:54.133Z,85.00
2018-09-15T04:34:23.471Z,84.80
2018-09-15T04:36:52.968Z,85.00
2018-09-15T04:39:22.354Z,85.10
2018-09-15T04:41:51.705Z,84.90
2018-09-15T04:44:21.141Z,84.90
2018-09-15T04:46:50.492Z,85.00
2018-09-15T04:49:19.871Z,85.10
2018-09-15T04:51:49.222Z,85.20
2018-09-15T04:54:18.552Z,85.20
2018-09-15T04:56:47.962Z,85.70
2018-09-15T04:59:17.318Z,86.00
2018-09-15T05:01:46.690Z,85.80
2018-09-15T05:04:16.052Z,87.00
2018-09-15T05:06:45.487Z,87.30
2018-09-15T05:09:14.819Z,87.80
2018-09-15T05:11:44.199Z,88.10
2018-09-15T05:14:13.642Z,88.80
2018-09-15T05:16:42.983Z,89.50
2018-09-15T05:19:12.386Z,90.00
2018-09-15T05:21:41.808Z,90.00
2018-09-15T05:24:11.121Z,90.40
2018-09-15T05:26:40.556Z,92.60
2018-09-15T05:29:10.003Z,98.50
2018-09-15T05:31:39.420Z,97.10
2018-09-15T05:34:08.850Z,99.90
2018-09-15T05:36:38.336Z,99.90
2018-09-15T05:39:10.879Z,99.90
2018-09-15T05:41:40.310Z,99.90
2018-09-15T05:44:09.806Z,99.90
2018-09-15T05:46:39.391Z,99.90
2018-09-15T05:49:08.992Z,99.90
2018-09-15T05:51:38.347Z,99.90
2018-09-15T05:54:07.770Z,99.90
2018-09-15T05:56:37.211Z,99.90
2018-09-15T05:59:07.182Z,99.90
2018-09-15T06:01:36.598Z,99.90
2018-09-15T06:04:05.945Z,99.90
2018-09-15T06:06:35.321Z,99.90
2018-09-15T06:09:06.442Z,99.90
2018-09-15T06:11:35.845Z,99.90
2018-09-15T06:14:05.196Z,99.90
2018-09-15T06:16:34.707Z,99.90
2018-09-15T06:19:04.267Z,99.90
2018-09-15T06:21:33.707Z,99.90
2018-09-15T06:24:03.290Z,99.90
2018-09-15T06:26:33.399Z,99.90
2018-09-15T06:29:02.866Z,99.90
2018-09-15T06:31:32.407Z,99.90
2018-09-15T06:34:01.856Z,99.90
2018-09-15T06:36:31.252Z,99.90
2018-09-15T06:39:00.746Z,99.90
2018-09-15T06:41:30.210Z,99.90
2018-09-15T06:43:59.567Z,99.90
2018-09-15T06:46:28.916Z,99.90
2018-09-15T06:48:58.235Z,99.90
2018-09-15T06:51:28.324Z,99.90
2018-09-15T06:53:58.686Z,99.90
2018-09-15T06:56:28.702Z,99.90
2018-09-15T06:58:58.206Z,99.90
2018-09-15T07:01:27.563Z,99.90
2018-09-15T07:03:56.990Z,99.90
2018-09-15T07:06:26.550Z,99.90
2018-09-15T07:08:55.941Z,99.90
2018-09-15T07:11:25.365Z,99.90
2018-09-15T07:13:54.824Z,99.90
2018-09-15T07:16:24.194Z,99.90
2018-09-15T07:18:53.588Z,99.90
2018-09-15T07:21:23.157Z,99.90
2018-09-15T07:23:52.528Z,99.90
2018-09-15T07:26:21.890Z,99.90
2018-09-15T07:28:51.225Z,99.90
2018-09-15T07:31:20.733Z,99.90
2018-09-15T07:33:50.138Z,99.90
2018-09-15T07:36:19.455Z,99.90
2018-09-15T07:38:48.886Z,99.90
2018-09-15T07:41:18.189Z,99.90
2018-09-15T07:43:47.686Z,99.90
2018-09-15T07:46:17.063Z,99.90
2018-09-15T07:48:46.425Z,99.90
2018-09-15T07:51:15.778Z,99.90
2018-09-15T07:53:45.195Z,99.90
2018-09-15T07:56:14.567Z,99.90
2018-09-15T07:58:43.940Z,99.90
2018-09-15T08:01:13.330Z,99.90
2018-09-15T08:03:42.694Z,99.90
2018-09-15T08:06:12.178Z,99.90
2018-09-15T08:08:41.625Z,99.90
2018-09-15T08:11:11.089Z,99.90
2018-09-15T08:13:40.514Z,99.90
2018-09-15T08:16:09.968Z,99.90
2018-09-15T08:18:39.341Z,99.90
2018-09-15T08:21:08.719Z,99.90
2018-09-15T08:23:38.123Z,99.90
2018-09-15T08:26:07.594Z,99.90
2018-09-15T08:28:36.942Z,99.70
2018-09-15T08:31:06.439Z,99.40
2018-09-15T08:33:35.800Z,99.10
2018-09-15T08:36:05.231Z,99.30
2018-09-15T08:38:34.799Z,99.20
2018-09-15T08:41:04.145Z,98.90
2018-09-15T08:43:33.502Z,98.50
2018-09-15T08:46:03.354Z,98.10
2018-09-15T08:48:32.693Z,97.90
2018-09-15T08:51:02.128Z,97.70
2018-09-15T08:53:31.484Z,97.70
2018-09-15T08:56:00.962Z,97.20
2018-09-15T08:58:30.361Z,96.50
2018-09-15T09:00:59.760Z,96.20
2018-09-15T09:03:29.136Z,96.50
2018-09-15T09:05:58.489Z,96.40
2018-09-15T09:08:27.937Z,96.00
2018-09-15T09:10:57.330Z,95.90
2018-09-15T09:13:26.757Z,95.70
2018-09-15T09:15:56.148Z,95.60
2018-09-15T09:18:25.558Z,95.20
2018-09-15T09:20:54.962Z,94.80
2018-09-15T09:23:24.371Z,94.00
2018-09-15T09:25:53.737Z,94.20
2018-09-15T09:28:23.172Z,93.80
2018-09-15T09:30:52.613Z,93.50
2018-09-15T09:33:22.122Z,93.10
2018-09-15T09:35:51.478Z,93.00
2018-09-15T09:38:20.917Z,92.20
2018-09-15T09:40:50.328Z,91.80
2018-09-15T09:43:19.988Z,91.40
2018-09-15T09:45:49.440Z,91.50
2018-09-15T09:48:18.794Z,91.20
2018-09-15T09:50:48.161Z,91.40
2018-09-15T09:53:17.640Z,90.40
2018-09-15T09:55:47.001Z,90.70
2018-09-15T09:58:16.570Z,90.80
2018-09-15T10:00:51.103Z,90.80
2018-09-15T10:03:20.480Z,90.80
2018-09-15T10:05:50.117Z,90.50
2018-09-15T10:08:19.492Z,90.20
2018-09-15T10:10:48.851Z,90.60
2018-09-15T10:13:18.301Z,90.60
2018-09-15T10:15:47.669Z,90.30
2018-09-15T10:18:17.041Z,89.50
2018-09-15T10:20:53.727Z,89.30
2018-09-15T10:23:23.198Z,89.30
2018-09-15T10:25:52.638Z,89.20
2018-09-15T10:28:22.014Z,89.20
2018-09-15T10:30:51.446Z,89.40
2018-09-15T10:33:20.880Z,89.20
2018-09-15T10:35:50.227Z,88.30
2018-09-15T10:38:19.649Z,87.30
2018-09-15T10:40:49.079Z,87.60
2018-09-15T10:43:18.575Z,87.30
2018-09-15T10:45:47.980Z,87.00
2018-09-15T10:48:17.354Z,86.50
2018-09-15T10:50:46.686Z,87.50
2018-09-15T10:53:16.095Z,87.80
2018-09-15T10:55:45.540Z,87.50
2018-09-15T10:58:14.963Z,87.60
2018-09-15T11:00:44.387Z,88.00
2018-09-15T11:03:13.812Z,88.20
2018-09-15T11:05:43.260Z,87.90
2018-09-15T11:08:12.620Z,88.60
2018-09-15T11:10:42.009Z,88.10
2018-09-15T11:13:11.352Z,87.40
2018-09-15T11:15:40.754Z,87.30
2018-09-15T11:18:10.159Z,88.70
2018-09-15T11:20:39.612Z,88.70
2018-09-15T11:23:09.006Z,88.60
2018-09-15T11:25:38.403Z,88.30
2018-09-15T11:28:07.810Z,88.10
2018-09-15T11:30:37.187Z,87.80
2018-09-15T11:33:06.586Z,87.40
2018-09-15T11:35:36.007Z,86.90
2018-09-15T11:38:05.415Z,86.50
2018-09-15T11:40:34.839Z,86.00
2018-09-15T11:43:04.211Z,86.50
2018-09-15T11:45:33.599Z,85.80
2018-09-15T11:48:03.132Z,86.20
2018-09-15T11:50:32.438Z,86.30
2018-09-15T11:53:01.904Z,85.80
2018-09-15T11:55:31.352Z,85.20
2018-09-15T11:58:00.743Z,84.60
2018-09-15T12:00:33.381Z,84.90
2018-09-15T12:03:02.814Z,85.40
2018-09-15T12:05:32.179Z,82.90
2018-09-15T12:08:01.585Z,83.40
2018-09-15T12:10:30.955Z,82.10
2018-09-15T12:13:00.418Z,81.00
2018-09-15T12:15:29.914Z,79.00
2018-09-15T12:17:59.283Z,78.70
2018-09-15T12:20:28.619Z,78.10
2018-09-15T12:22:58.057Z,76.90
2018-09-15T12:25:27.421Z,75.50
2018-09-15T12:27:56.846Z,75.10
2018-09-15T12:30:26.203Z,74.80
2018-09-15T12:32:55.603Z,74.90
2018-09-15T12:35:24.958Z,73.00
2018-09-15T12:37:54.413Z,73.50
2018-09-15T12:40:23.824Z,72.30
2018-09-15T12:42:53.594Z,72.10
2018-09-15T12:45:23.180Z,70.60
2018-09-15T12:47:52.536Z,70.20
2018-09-15T12:50:21.944Z,71.40
2018-09-15T12:52:51.352Z,70.80
2018-09-15T12:55:20.755Z,70.90
2018-09-15T12:57:50.173Z,70.00
2018-09-15T13:00:19.622Z,69.30
2018-09-15T13:02:48.935Z,69.00
2018-09-15T13:05:18.292Z,69.30
2018-09-15T13:07:47.659Z,69.00
2018-09-15T13:10:17.049Z,70.60
2018-09-15T13:12:46.395Z,68.90
2018-09-15T13:15:15.804Z,67.50
2018-09-15T13:17:45.176Z,68.20
2018-09-15T13:20:14.589Z,66.90
2018-09-15T13:22:43.982Z,68.40
2018-09-15T13:25:13.284Z,67.20
2018-09-15T13:27:42.678Z,66.80
2018-09-15T13:30:12.158Z,67.80
2018-09-15T13:32:41.560Z,66.50
2018-09-15T13:35:10.930Z,66.40
2018-09-15T13:37:40.390Z,68.80
2018-09-15T13:40:09.767Z,65.80
2018-09-15T13:42:39.107Z,65.60
2018-09-15T13:45:08.473Z,65.10
2018-09-15T13:47:37.848Z,64.50
2018-09-15T13:50:07.230Z,66.10
2018-09-15T13:52:36.615Z,68.00
2018-09-15T13:55:06.195Z,67.20
2018-09-15T13:57:35.620Z,65.00
2018-09-15T14:00:05.198Z,64.90
2018-09-15T14:02:44.493Z,66.60
2018-09-15T14:05:14.866Z,66.10
2018-09-15T14:07:44.300Z,66.80
2018-09-15T14:10:19.011Z,65.60
2018-09-15T14:12:43.075Z,64.50
2018-09-15T14:15:12.455Z,65.60
2018-09-15T14:17:41.820Z,65.80
2018-09-15T14:20:11.263Z,64.10
2018-09-15T14:22:40.731Z,66.30
2018-09-15T14:25:11.046Z,66.10
2018-09-15T14:27:40.399Z,66.20
2018-09-15T14:30:09.769Z,66.20
2018-09-15T14:32:39.188Z,66.50
2018-09-15T14:35:08.653Z,66.30
2018-09-15T14:37:38.082Z,65.00
2018-09-15T14:40:07.592Z,65.90
2018-09-15T14:42:36.924Z,66.80
2018-09-15T14:45:06.358Z,65.30
2018-09-15T14:47:35.785Z,64.00
2018-09-15T14:50:05.261Z,65.20
2018-09-15T14:52:34.626Z,65.70
2018-09-15T14:55:04.015Z,64.90
2018-09-15T14:57:33.392Z,64.40
2018-09-15T15:00:02.867Z,64.10
2018-09-15T15:02:32.317Z,64.30
2018-09-15T15:05:01.755Z,64.90
2018-09-15T15:07:31.174Z,65.30
2018-09-15T15:10:00.602Z,65.90
2018-09-15T15:12:30.037Z,66.10
2018-09-15T15:14:59.395Z,66.10
2018-09-15T15:17:28.760Z,66.80
2018-09-15T15:19:58.106Z,67.50
2018-09-15T15:22:27.595Z,67.70
2018-09-15T15:24:56.962Z,67.70
2018-09-15T15:27:26.373Z,66.50
2018-09-15T15:29:55.748Z,64.60
2018-09-15T15:32:25.107Z,65.80
2018-09-15T15:34:54.491Z,67.50
2018-09-15T15:37:23.851Z,66.60
2018-09-15T15:39:53.270Z,68.10
2018-09-15T15:42:22.660Z,68.40
2018-09-15T15:44:52.002Z,69.20
2018-09-15T15:47:21.391Z,69.50
2018-09-15T15:49:50.807Z,69.10
2018-09-15T15:52:20.147Z,70.00
2018-09-15T15:54:49.851Z,70.10
2018-09-15T15:57:19.199Z,69.80
2018-09-15T15:59:48.645Z,69.90
2018-09-15T16:02:17.984Z,71.10
2018-09-15T16:04:47.292Z,70.80
2018-09-15T16:07:16.654Z,70.90
2018-09-15T16:09:46.022Z,71.40
2018-09-15T16:12:15.388Z,71.70
2018-09-15T16:14:44.733Z,71.30
2018-09-15T16:17:15.049Z,70.80
2018-09-15T16:19:44.499Z,71.60
2018-09-15T16:22:14.005Z,72.50
2018-09-15T16:24:43.404Z,71.40
2018-09-15T16:27:12.744Z,71.50
2018-09-15T16:29:42.147Z,72.40
2018-09-15T16:32:11.473Z,72.80
2018-09-15T16:34:40.930Z,72.50
2018-09-15T16:37:10.436Z,73.00
2018-09-15T16:39:39.818Z,73.00
2018-09-15T16:42:09.281Z,75.10
2018-09-15T16:44:38.623Z,77.00
2018-09-15T16:47:07.944Z,77.50
2018-09-15T16:49:37.366Z,78.00
2018-09-15T16:52:06.723Z,78.50
2018-09-15T16:54:36.071Z,78.80
2018-09-15T16:57:05.570Z,79.20
2018-09-15T16:59:35.094Z,79.80
2018-09-15T17:02:04.452Z,80.40
2018-09-15T17:04:34.143Z,80.90
2018-09-15T17:07:03.588Z,82.20
2018-09-15T17:09:32.977Z,82.80
2018-09-15T17:12:02.427Z,84.00
2018-09-15T17:14:31.801Z,85.50
2018-09-15T17:17:01.142Z,85.20
2018-09-15T17:19:30.527Z,85.70
2018-09-15T17:21:59.942Z,86.40
2018-09-15T17:24:29.269Z,87.00
2018-09-15T17:26:58.633Z,87.20
2018-09-15T17:29:27.991Z,87.80
2018-09-15T17:31:57.366Z,87.90
2018-09-15T17:34:26.735Z,88.30
2018-09-15T17:36:56.107Z,88.40
2018-09-15T17:39:25.482Z,88.70
2018-09-15T17:41:54.785Z,89.10
2018-09-15T17:44:24.158Z,89.20
2018-09-15T17:46:53.536Z,89.50
2018-09-15T17:49:22.897Z,89.60
2018-09-15T17:51:52.451Z,89.70
2018-09-15T17:54:21.833Z,90.00
2018-09-15T17:56:51.211Z,90.00
2018-09-15T17:59:20.661Z,90.20
2018-09-15T18:01:50.306Z,90.20
2018-09-15T18:04:19.659Z,90.30
2018-09-15T18:06:49.040Z,90.40
2018-09-15T18:09:18.399Z,90.40
2018-09-15T18:11:47.707Z,90.50
2018-09-15T18:14:17.106Z,90.50
2018-09-15T18:16:46.506Z,90.60
2018-09-15T18:19:15.827Z,90.60
2018-09-15T18:21:45.230Z,90.60
2018-09-15T18:24:14.629Z,90.70
2018-09-15T18:26:44.010Z,90.70
2018-09-15T18:29:13.479Z,90.70
2018-09-15T18:31:42.839Z,90.90
2018-09-15T18:34:12.247Z,90.90
2018-09-15T18:36:41.800Z,90.90
2018-09-15T18:39:11.894Z,90.80
2018-09-15T18:41:41.246Z,90.90
2018-09-15T18:44:10.604Z,90.90
2018-09-15T18:46:39.975Z,90.80
2018-09-15T18:49:09.360Z,90.90
2018-09-15T18:51:38.774Z,90.90
2018-09-15T18:54:08.249Z,90.90
2018-09-15T18:56:37.619Z,90.80
2018-09-15T18:59:07.082Z,90.90
2018-09-15T19:01:36.469Z,90.90
2018-09-15T19:04:05.825Z,90.90
2018-09-15T19:06:35.227Z,90.80
2018-09-15T19:09:05.990Z,90.80
2018-09-15T19:11:35.308Z,90.80
2018-09-15T19:14:04.661Z,90.90
2018-09-15T19:16:34.049Z,91.00
2018-09-15T19:19:03.407Z,90.90
2018-09-15T19:21:32.820Z,91.00
2018-09-15T19:24:02.267Z,91.10
2018-09-15T19:26:31.692Z,91.10
2018-09-15T19:29:01.052Z,91.20
2018-09-15T19:31:30.416Z,91.20
2018-09-15T19:33:59.783Z,91.50
2018-09-15T19:36:29.135Z,91.30
2018-09-15T19:38:58.515Z,91.60
2018-09-15T19:41:28.021Z,91.30
2018-09-15T19:43:57.420Z,91.30
2018-09-15T19:46:26.832Z,91.30
2018-09-15T19:48:56.163Z,91.40
2018-09-15T19:51:25.524Z,91.40
2018-09-15T19:53:54.931Z,91.40
2018-09-15T19:56:24.324Z,91.50
2018-09-15T19:58:53.704Z,91.50
2018-09-15T20:01:23.732Z,91.50
2018-09-15T20:03:53.085Z,91.60
2018-09-15T20:06:22.646Z,91.60
2018-09-15T20:08:58.565Z,91.60
2018-09-15T20:11:27.995Z,91.60
2018-09-15T20:13:57.358Z,91.60
2018-09-15T20:16:25.130Z,91.60
2018-09-15T20:18:52.919Z,91.60
2018-09-15T20:21:20.703Z,91.60
2018-09-15T20:23:50.110Z,91.60
2018-09-15T20:26:19.437Z,91.70
2018-09-15T20:28:48.845Z,91.60
2018-09-15T20:31:18.272Z,91.50
2018-09-15T20:33:47.802Z,91.50
2018-09-15T20:36:17.206Z,91.50
2018-09-15T20:38:46.640Z,91.40
2018-09-15T20:41:16.070Z,91.30
2018-09-15T20:43:45.427Z,91.20
2018-09-15T20:46:14.846Z,91.20
2018-09-15T20:48:44.305Z,91.20
2018-09-15T20:51:13.612Z,91.20
2018-09-15T20:53:43.049Z,91.20
2018-09-15T20:56:12.407Z,91.20
2018-09-15T20:58:41.782Z,91.30
2018-09-15T21:01:11.230Z,91.30
2018-09-15T21:03:40.561Z,91.30
2018-09-15T21:06:09.969Z,91.30
2018-09-15T21:08:39.344Z,91.20
2018-09-15T21:11:08.721Z,91.20
2018-09-15T21:13:38.106Z,91.30
2018-09-15T21:16:07.911Z,91.20
2018-09-15T21:18:37.343Z,91.00
2018-09-15T21:21:06.983Z,90.90
2018-09-15T21:23:36.375Z,90.80
2018-09-15T21:26:05.794Z,90.70
2018-09-15T21:28:35.240Z,90.50
2018-09-15T21:31:04.759Z,90.40
2018-09-15T21:33:34.258Z,90.50
2018-09-15T21:36:04.365Z,90.30
2018-09-15T21:38:33.783Z,90.20
2018-09-15T21:41:03.272Z,90.20
2018-09-15T21:43:32.789Z,90.00
2018-09-15T21:46:02.303Z,90.00
2018-09-15T21:48:31.784Z,90.00
2018-09-15T21:51:01.210Z,90.00
2018-09-15T21:53:30.658Z,90.00
2018-09-15T21:56:00.018Z,90.00
2018-09-15T21:58:29.461Z,90.00
2018-09-15T22:01:02.627Z,89.70
2018-09-15T22:03:36.192Z,89.80
2018-09-15T22:06:06.065Z,89.40
2018-09-15T22:08:35.379Z,87.90
2018-09-15T22:11:04.799Z,87.40
2018-09-15T22:13:34.115Z,86.00
2018-09-15T22:16:03.592Z,85.90
2018-09-15T22:18:32.940Z,85.80
2018-09-15T22:21:02.299Z,86.10
2018-09-15T22:23:31.699Z,86.00
2018-09-15T22:26:01.067Z,86.00
2018-09-15T22:28:30.455Z,86.20
2018-09-15T22:30:59.896Z,86.20
2018-09-15T22:33:29.324Z,85.70
2018-09-15T22:35:58.656Z,85.60
2018-09-15T22:38:28.079Z,84.80
2018-09-15T22:40:57.517Z,85.20
2018-09-15T22:43:26.906Z,85.40
2018-09-15T22:45:56.320Z,85.60
2018-09-15T22:48:25.782Z,85.90
2018-09-15T22:50:55.237Z,86.10
2018-09-15T22:53:24.634Z,85.70
2018-09-15T22:55:54.023Z,85.80
2018-09-15T22:58:23.457Z,86.20
2018-09-15T23:00:52.842Z,86.40
2018-09-15T23:03:22.268Z,86.40
2018-09-15T23:05:51.645Z,86.00
2018-09-15T23:08:21.130Z,86.00
2018-09-15T23:10:50.527Z,85.90
2018-09-15T23:13:19.930Z,85.90
2018-09-15T23:15:49.759Z,85.70
2018-09-15T23:18:19.178Z,85.80
2018-09-15T23:20:48.501Z,85.30
2018-09-15T23:23:18.034Z,85.30
2018-09-15T23:25:47.454Z,85.10
2018-09-15T23:28:16.799Z,84.90
2018-09-15T23:30:46.198Z,85.60
2018-09-15T23:33:15.567Z,84.90
2018-09-15T23:35:44.945Z,85.30
2018-09-15T23:38:14.384Z,85.50
2018-09-15T23:40:43.774Z,85.50
2018-09-15T23:43:13.145Z,85.40
2018-09-15T23:45:43.351Z,85.20
2018-09-15T23:48:12.723Z,84.70
2018-09-15T23:50:42.223Z,84.50
2018-09-15T23:53:11.644Z,85.00
2018-09-15T23:55:41.065Z,84.90
2018-09-15T23:58:10.452Z,85.10
